createdAt,value
2023-11-19T00:00:30.141Z,27.15
2023-11-19T00:02:57.616Z,23.27
2023-11-19T00:05:24.977Z,21.92
2023-11-19T00:07:52.184Z,27.40
2023-11-19T00:10:22.416Z,26.80
2023-11-19T00:12:50.887Z,25.52
2023-11-19T00:15:20.050Z,28.38
2023-11-19T00:17:49.933Z,27.10
2023-11-19T00:20:20.012Z,23.88
2023-11-19T00:22:53.081Z,23.40
2023-11-19T00:25:23.159Z,25.88
2023-11-19T00:27:52.818Z,33.92
2023-11-19T00:30:20.226Z,26.65
2023-11-19T00:32:47.560Z,29.13
2023-11-19T00:35:16.121Z,25.95
2023-11-19T00:37:44.216Z,27.67
2023-11-19T00:40:12.577Z,26.42
2023-11-19T00:42:40.164Z,25.40
2023-11-19T00:45:11.521Z,28.88
2023-11-19T00:47:40.328Z,24.15
2023-11-19T00:50:12.741Z,23.20
2023-11-19T00:52:40.432Z,24.67
2023-11-19T00:55:08.803Z,27.77
2023-11-19T00:57:38.515Z,27.08
2023-11-19T01:00:29.391Z,28.80
2023-11-19T01:02:56.692Z,33.17
2023-11-19T01:05:24.235Z,24.65
2023-11-19T01:07:55.116Z,21.60
2023-11-19T01:10:22.945Z,25.55
2023-11-19T01:12:50.517Z,26.00
2023-11-19T01:15:20.184Z,21.80
2023-11-19T01:20:18.499Z,23.00
2023-11-19T01:22:45.987Z,24.30
2023-11-19T01:25:15.664Z,24.98
2023-11-19T01:27:43.093Z,24.65
2023-11-19T01:30:14.433Z,23.65
2023-11-19T01:32:41.981Z,24.13
2023-11-19T01:35:09.504Z,24.33
2023-11-19T01:37:37.839Z,30.85
2023-11-19T01:40:09.108Z,27.90
2023-11-19T01:42:40.219Z,23.73
2023-11-19T01:45:09.635Z,32.50
2023-11-19T01:47:38.045Z,27.42
2023-11-19T01:50:09.323Z,28.92
2023-11-19T01:52:39.042Z,25.30
2023-11-19T01:55:08.931Z,29.30
2023-11-19T01:57:39.182Z,26.13
2023-11-19T02:00:13.338Z,24.25
2023-11-19T02:02:46.122Z,26.45
2023-11-19T02:05:15.010Z,31.17
2023-11-19T02:07:42.215Z,23.17
2023-11-19T02:10:14.362Z,23.85
2023-11-19T02:12:46.039Z,26.05
2023-11-19T02:15:13.657Z,22.05
2023-11-19T02:17:41.145Z,27.30
2023-11-19T02:20:10.899Z,29.50
2023-11-19T02:22:38.455Z,26.27
2023-11-19T02:25:09.238Z,28.42
2023-11-19T02:28:00.947Z,28.83
2023-11-19T02:30:29.626Z,39.53
2023-11-19T02:32:59.016Z,30.27
2023-11-19T02:35:27.498Z,29.15
2023-11-19T02:37:58.757Z,34.47
2023-11-19T02:40:26.397Z,30.75
2023-11-19T02:42:55.683Z,40.15
2023-11-19T02:45:27.328Z,35.67
2023-11-19T02:47:56.217Z,33.47
2023-11-19T02:50:26.944Z,33.22
2023-11-19T02:52:58.012Z,30.67
2023-11-19T02:55:26.702Z,37.22
2023-11-19T02:57:54.947Z,31.60
2023-11-19T03:00:33.447Z,32.30
2023-11-19T03:03:01.370Z,37.55
2023-11-19T03:05:31.951Z,32.70
2023-11-19T03:07:59.159Z,39.63
2023-11-19T03:57:06.999Z,39.40
2023-11-19T03:59:34.661Z,38.05
2023-11-19T04:02:02.145Z,31.00
2023-11-19T04:04:30.798Z,35.38
2023-11-19T04:06:59.187Z,37.45
2023-11-19T04:09:26.318Z,39.47
2023-11-19T04:11:53.652Z,36.72
2023-11-19T04:14:20.797Z,38.10
2023-11-19T04:19:15.214Z,38.92
2023-11-19T04:21:43.551Z,38.25
2023-11-19T04:24:15.051Z,36.28
2023-11-19T04:26:46.507Z,38.25
2023-11-19T04:29:18.435Z,47.50
2023-11-19T04:31:47.001Z,40.60
2023-11-19T04:34:14.355Z,46.38
2023-11-19T04:36:41.764Z,43.38
2023-11-19T04:41:50.912Z,39.28
2023-11-19T04:44:18.760Z,43.60
2023-11-19T04:46:46.997Z,41.38
2023-11-19T04:49:15.540Z,36.80
2023-11-19T04:51:43.741Z,39.85
2023-11-19T04:54:11.707Z,46.40
2023-11-19T04:56:38.967Z,43.90
2023-11-19T04:59:10.130Z,47.53
2023-11-19T05:01:37.364Z,42.28
2023-11-19T05:04:04.854Z,45.67
2023-11-19T05:06:32.750Z,47.67
2023-11-19T05:09:09.038Z,42.88
2023-11-19T05:11:36.599Z,47.65
2023-11-19T05:14:07.400Z,44.80
2023-11-19T05:16:34.668Z,45.67
2023-11-19T05:19:02.044Z,41.47
2023-11-19T05:21:29.223Z,41.60
2023-11-19T05:23:56.570Z,37.42
2023-11-19T05:26:25.260Z,45.80
2023-11-19T05:28:52.632Z,44.08
2023-11-19T05:31:20.032Z,44.17
2023-11-19T05:33:47.308Z,50.03
2023-11-19T05:36:15.003Z,54.05
2023-11-19T05:38:42.170Z,42.40
2023-11-19T05:41:09.693Z,48.67
2023-11-19T05:43:36.972Z,50.25
2023-11-19T05:46:04.614Z,49.78
2023-11-19T05:48:48.051Z,54.60
2023-11-19T05:51:18.631Z,46.15
2023-11-19T05:53:49.246Z,44.85
2023-11-19T05:56:17.385Z,51.50
2023-11-19T05:58:46.336Z,52.05
2023-11-19T06:01:16.441Z,51.92
2023-11-19T06:03:44.938Z,47.53
2023-11-19T06:06:13.418Z,51.92
2023-11-19T06:08:40.782Z,54.25
2023-11-19T06:11:08.991Z,59.80
2023-11-19T06:13:36.150Z,57.03
2023-11-19T06:16:04.310Z,82.22
2023-11-19T06:18:32.789Z,69.68
2023-11-19T06:20:59.971Z,48.35
2023-11-19T06:25:54.494Z,58.78
2023-11-19T06:28:21.792Z,54.63
2023-11-19T06:30:49.782Z,52.45
2023-11-19T06:33:17.408Z,52.53
2023-11-19T07:49:39.758Z,30.65
2023-11-19T07:52:21.588Z,32.42
2023-11-19T07:54:51.533Z,26.05
2023-11-19T07:57:19.562Z,32.33
2023-11-19T07:59:47.006Z,27.10
2023-11-19T08:02:15.975Z,28.10
2023-11-19T08:04:46.474Z,30.70
2023-11-19T08:07:20.655Z,30.55
2023-11-19T08:09:51.434Z,22.30
2023-11-19T08:12:18.941Z,27.92
2023-11-19T08:14:46.185Z,25.63
2023-11-19T08:17:16.219Z,22.52
2023-11-19T08:19:43.392Z,26.85
2023-11-19T08:24:38.107Z,22.10
2023-11-19T08:27:06.168Z,20.52
2023-11-19T08:29:33.566Z,22.25
2023-11-19T08:32:03.649Z,20.13
2023-11-19T08:34:31.127Z,22.58
2023-11-19T08:36:58.482Z,18.25
2023-11-19T08:39:25.750Z,23.80
2023-11-19T08:41:52.974Z,18.92
2023-11-19T08:44:21.001Z,22.73
2023-11-19T08:46:50.343Z,22.33
2023-11-19T08:49:17.954Z,20.63
2023-11-19T08:51:46.694Z,20.08
2023-11-19T08:54:14.387Z,21.52
2023-11-19T08:56:44.020Z,23.48
2023-11-19T08:59:11.475Z,18.67
2023-11-19T09:01:40.237Z,24.88
2023-11-19T09:04:07.991Z,23.63
2023-11-19T09:06:40.539Z,22.88
2023-11-19T09:09:10.979Z,27.10
2023-11-19T09:11:38.883Z,19.90
2023-11-19T09:14:06.408Z,22.25
2023-11-19T09:16:39.698Z,19.08
2023-11-19T09:19:09.372Z,21.13
2023-11-19T09:21:39.906Z,26.58
2023-11-19T09:24:09.056Z,21.35
2023-11-19T09:26:51.592Z,24.67
2023-11-19T09:29:19.230Z,15.07
2023-11-19T09:31:49.150Z,15.93
2023-11-19T09:34:16.397Z,18.17
2023-11-19T09:39:16.258Z,15.77
2023-11-19T09:41:43.656Z,15.88
2023-11-19T09:44:13.227Z,13.60
2023-11-19T09:46:42.740Z,15.18
2023-11-19T09:49:11.472Z,13.95
2023-11-19T09:51:39.083Z,19.55
2023-11-19T09:54:08.389Z,20.75
2023-11-19T09:56:39.850Z,16.05
2023-11-19T09:59:11.643Z,15.98
2023-11-19T10:01:41.905Z,15.15
2023-11-19T10:04:16.892Z,15.82
2023-11-19T10:06:46.894Z,15.30
2023-11-19T10:09:16.724Z,16.42
2023-11-19T10:11:44.123Z,19.08
2023-11-19T10:14:15.804Z,15.55
2023-11-19T10:16:44.110Z,13.30
2023-11-19T10:19:21.683Z,21.17
2023-11-19T10:21:56.399Z,17.55
2023-11-19T10:24:38.425Z,17.25
2023-11-19T10:27:10.678Z,15.20
2023-11-19T10:29:39.524Z,12.15
2023-11-19T10:32:24.515Z,17.95
2023-11-19T10:35:06.706Z,16.08
2023-11-19T10:37:36.666Z,17.30
2023-11-19T10:40:06.875Z,14.68
2023-11-19T10:42:34.430Z,14.65
2023-11-19T10:45:05.931Z,19.38
2023-11-19T10:50:08.096Z,20.33
2023-11-19T10:52:38.289Z,16.65
2023-11-19T10:55:09.750Z,17.38
2023-11-19T10:57:46.440Z,16.63
2023-11-19T11:00:20.725Z,18.23
2023-11-19T11:02:56.358Z,16.40
2023-11-19T11:05:25.451Z,15.80
2023-11-19T11:07:54.031Z,15.38
2023-11-19T11:10:27.398Z,15.98
2023-11-19T11:13:00.579Z,16.67
2023-11-19T11:15:32.834Z,19.25
2023-11-19T11:18:04.355Z,15.55
2023-11-19T11:20:32.877Z,17.80
2023-11-19T11:23:26.084Z,16.13
2023-11-19T11:26:08.738Z,19.92
2023-11-19T11:28:39.041Z,18.75
2023-11-19T11:31:38.722Z,23.52
2023-11-19T11:34:26.531Z,21.30
2023-11-19T11:37:08.481Z,23.02
2023-11-19T11:39:36.680Z,23.33
2023-11-19T11:42:20.293Z,20.45
2023-11-19T11:45:10.866Z,19.30
2023-11-19T11:47:44.708Z,21.27
2023-11-19T11:50:20.376Z,23.02
2023-11-19T11:53:00.702Z,24.02
2023-11-19T11:55:49.632Z,19.05
2023-11-19T11:58:33.517Z,26.95
2023-11-19T12:01:07.154Z,23.85
2023-11-19T12:03:35.600Z,22.50
2023-11-19T12:06:04.555Z,22.52
2023-11-19T12:08:53.291Z,23.30
2023-11-19T12:11:22.994Z,25.02
2023-11-19T12:14:00.074Z,27.27
2023-11-19T12:16:29.780Z,27.55
2023-11-19T12:18:57.792Z,29.52
2023-11-19T12:21:32.835Z,27.98
2023-11-19T12:26:40.684Z,24.95
2023-11-19T12:29:10.435Z,20.83
2023-11-19T12:31:39.254Z,27.05
2023-11-19T12:34:08.469Z,25.55
2023-11-19T12:36:36.587Z,25.13
2023-11-19T12:39:05.260Z,27.20
2023-11-19T12:41:32.733Z,23.67
2023-11-19T12:44:13.913Z,24.67
2023-11-19T12:46:41.725Z,27.83
2023-11-19T12:49:12.765Z,29.63
2023-11-19T12:51:42.669Z,25.92
2023-11-19T12:54:38.360Z,28.15
2023-11-19T12:57:07.072Z,25.85
2023-11-19T12:59:34.584Z,21.92
2023-11-19T13:02:02.189Z,30.73
2023-11-19T13:04:34.895Z,25.25
2023-11-19T13:07:06.097Z,29.00
2023-11-19T13:09:34.140Z,27.55
2023-11-19T13:12:14.805Z,27.08
2023-11-19T13:14:43.824Z,28.77
2023-11-19T13:17:16.275Z,28.35
2023-11-19T13:19:44.462Z,29.80
2023-11-19T13:22:11.972Z,28.52
2023-11-19T13:24:41.825Z,27.48
2023-11-19T13:27:10.631Z,28.92
2023-11-19T13:29:38.078Z,26.10
2023-11-19T13:32:07.171Z,28.00
2023-11-19T13:34:34.794Z,28.27
2023-11-19T13:37:02.118Z,29.38
2023-11-19T13:39:29.708Z,30.17
2023-11-19T13:42:13.399Z,28.15
2023-11-19T13:44:43.042Z,29.30
2023-11-19T13:47:15.296Z,32.35
2023-11-19T13:49:42.764Z,27.30
2023-11-19T13:52:10.209Z,31.08
2023-11-19T13:54:39.070Z,29.75
2023-11-19T13:57:06.733Z,23.75
2023-11-19T13:59:34.111Z,31.83
2023-11-19T14:02:01.643Z,28.45
2023-11-19T14:04:29.451Z,32.75
2023-11-19T14:06:57.158Z,28.77
2023-11-19T14:09:24.713Z,29.05
2023-11-19T14:11:54.480Z,28.98
2023-11-19T14:14:22.343Z,32.08
2023-11-19T14:16:52.215Z,29.30
2023-11-19T14:19:19.811Z,29.77
2023-11-19T14:21:49.041Z,29.40
2023-11-19T14:24:16.506Z,28.60
2023-11-19T14:26:51.318Z,31.90
2023-11-19T14:29:19.315Z,29.75
2023-11-19T14:31:46.715Z,37.20
2023-11-19T14:34:14.138Z,30.15
2023-11-19T14:36:41.573Z,30.33
2023-11-19T14:39:09.004Z,32.50
2023-11-19T14:41:36.740Z,36.50
2023-11-19T14:44:05.161Z,38.65
2023-11-19T14:46:33.176Z,35.15
2023-11-19T14:49:01.059Z,37.88
2023-11-19T14:51:31.074Z,29.90
2023-11-19T14:53:59.506Z,35.28
2023-11-19T14:56:27.056Z,37.63
2023-11-19T14:58:54.590Z,37.90
2023-11-19T15:01:22.418Z,36.55
2023-11-19T15:06:26.823Z,37.00
2023-11-19T15:08:57.854Z,41.53
2023-11-19T15:11:27.794Z,41.47
2023-11-19T15:13:55.546Z,44.50
2023-11-19T15:16:38.447Z,40.30
2023-11-19T15:19:10.036Z,46.28
2023-11-19T15:21:38.043Z,52.97
2023-11-19T15:24:09.038Z,50.28
2023-11-19T15:26:37.420Z,50.70
2023-11-19T15:31:48.677Z,48.58
2023-11-19T15:34:17.057Z,52.70
2023-11-19T15:36:51.456Z,46.65
2023-11-19T15:39:28.080Z,52.80
2023-11-19T15:41:57.907Z,54.15
2023-11-19T15:44:26.734Z,52.95
2023-11-19T15:46:55.634Z,51.95
2023-11-19T15:49:23.954Z,45.92
2023-11-19T15:54:59.804Z,51.78
2023-11-19T15:57:28.309Z,43.40
2023-11-19T16:00:01.049Z,45.05
2023-11-19T16:02:29.874Z,47.60
2023-11-19T16:04:58.528Z,52.30
2023-11-19T16:07:39.332Z,47.45
2023-11-19T16:10:10.846Z,50.05
2023-11-19T16:12:38.871Z,47.42
2023-11-19T16:15:36.311Z,51.20
2023-11-19T16:18:04.964Z,46.55
2023-11-19T16:20:42.964Z,41.05
2023-11-19T16:25:52.670Z,47.90
2023-11-19T16:31:04.816Z,48.45
2023-11-19T16:33:46.692Z,47.25
2023-11-19T16:36:19.409Z,46.42
2023-11-19T16:38:51.775Z,50.00
2023-11-19T16:41:36.435Z,49.00
2023-11-19T16:44:10.870Z,46.97
2023-11-19T16:46:39.064Z,45.95
2023-11-19T16:49:08.995Z,51.67
2023-11-19T16:51:42.041Z,45.13
2023-11-19T16:54:13.885Z,40.53
2023-11-19T16:56:46.045Z,47.75
2023-11-19T16:59:17.142Z,42.92
2023-11-19T17:01:48.991Z,45.28
2023-11-19T17:04:29.013Z,44.30
2023-11-19T17:07:01.691Z,46.58
2023-11-19T17:09:31.765Z,48.90
2023-11-19T17:12:01.478Z,57.35
2023-11-19T17:17:06.015Z,49.90
2023-11-19T17:19:33.925Z,42.97
2023-11-19T17:22:04.248Z,47.10
2023-11-19T17:24:34.839Z,48.17
2023-11-19T17:27:06.266Z,53.53
2023-11-19T17:29:40.448Z,58.22
2023-11-19T17:32:40.518Z,129.98
2023-11-19T17:35:10.520Z,68.43
2023-11-19T17:37:56.840Z,52.40
2023-11-19T17:40:27.850Z,54.15
2023-11-19T17:42:58.315Z,49.45
2023-11-19T17:45:26.678Z,51.13
2023-11-19T17:47:55.146Z,44.95
2023-11-19T17:50:26.091Z,48.38
2023-11-19T17:52:55.558Z,46.35
2023-11-19T17:55:23.583Z,56.90
2023-11-19T17:57:52.780Z,52.72
2023-11-19T18:00:20.702Z,46.33
2023-11-19T18:02:55.942Z,52.05
2023-11-19T18:05:32.330Z,53.80
2023-11-19T18:08:05.801Z,54.42
2023-11-19T18:10:48.904Z,52.15
2023-11-19T18:13:24.722Z,56.75
2023-11-19T18:16:04.569Z,53.85
2023-11-19T18:18:35.446Z,59.05
2023-11-19T18:21:45.598Z,56.70
2023-11-19T18:24:02.831Z,56.97
2023-11-19T18:29:07.030Z,52.13
2023-11-19T18:31:38.269Z,54.20
2023-11-19T18:34:09.955Z,59.50
2023-11-19T18:36:38.459Z,54.78
2023-11-19T18:39:17.157Z,56.33
2023-11-19T18:41:53.520Z,52.55
2023-11-19T18:44:26.252Z,61.10
2023-11-19T18:46:54.081Z,69.32
2023-11-19T18:49:36.193Z,58.63
2023-11-19T18:52:09.894Z,67.78
2023-11-19T18:54:52.167Z,60.72
2023-11-19T18:57:31.955Z,65.80
2023-11-19T19:00:02.000Z,70.72
2023-11-19T19:02:32.575Z,65.45
2023-11-19T19:05:00.856Z,67.90
2023-11-19T19:07:32.436Z,60.85
2023-11-19T19:10:07.023Z,65.90
2023-11-19T19:12:46.766Z,71.22
2023-11-19T19:15:17.656Z,68.47
2023-11-19T19:17:45.930Z,69.30
2023-11-19T19:20:14.488Z,70.22
2023-11-19T19:22:47.731Z,70.22
2023-11-19T19:25:22.835Z,66.40
2023-11-19T19:28:20.428Z,67.60
2023-11-19T19:30:44.948Z,62.65
2023-11-19T19:33:16.708Z,64.60
2023-11-19T19:35:46.845Z,64.57
2023-11-19T19:38:19.522Z,60.95
2023-11-19T19:40:50.961Z,60.60
2023-11-19T19:43:27.115Z,65.80
2023-11-19T19:45:56.542Z,64.07
2023-11-19T19:48:26.984Z,60.08
2023-11-19T19:50:54.231Z,58.28
2023-11-19T19:53:21.941Z,58.47
2023-11-19T19:55:52.460Z,61.08
2023-11-19T19:58:19.805Z,51.22
2023-11-19T20:00:47.847Z,50.75
2023-11-19T20:03:16.679Z,53.25
2023-11-19T20:05:45.621Z,51.22
2023-11-19T20:08:13.069Z,51.95
2023-11-19T20:10:42.970Z,50.72
2023-11-19T20:13:19.148Z,50.78
2023-11-19T20:15:56.809Z,51.78
2023-11-19T20:18:26.026Z,50.20
2023-11-19T20:21:25.194Z,50.50
2023-11-19T20:24:04.338Z,51.00
2023-11-19T20:26:35.349Z,53.50
2023-11-19T20:31:35.713Z,49.20
2023-11-19T20:34:03.176Z,49.83
2023-11-19T20:36:33.604Z,52.35
2023-11-19T20:39:00.872Z,58.40
2023-11-19T20:41:31.265Z,58.10
2023-11-19T20:44:00.349Z,59.25
2023-11-19T20:46:27.789Z,60.97
2023-11-19T20:48:57.557Z,58.28
2023-11-19T20:51:30.532Z,50.70
2023-11-19T20:54:00.652Z,51.63
2023-11-19T20:56:30.315Z,53.35
2023-11-19T20:59:02.274Z,51.75
2023-11-19T21:01:29.742Z,52.95
2023-11-19T21:03:57.599Z,54.08
2023-11-19T21:06:24.928Z,62.45
2023-11-19T21:08:52.425Z,53.42
2023-11-19T21:11:20.886Z,54.38
2023-11-19T21:13:48.751Z,48.85
2023-11-19T21:16:18.478Z,47.25
2023-11-19T21:18:45.860Z,39.42
2023-11-19T21:21:15.655Z,42.55
2023-11-19T21:23:42.899Z,41.72
2023-11-19T21:26:13.197Z,43.58
2023-11-19T21:28:40.666Z,45.60
2023-11-19T21:31:08.488Z,47.08
2023-11-19T21:33:35.707Z,45.80
2023-11-19T21:36:06.022Z,42.20
2023-11-19T21:38:33.260Z,38.25
2023-11-19T21:41:05.746Z,38.50
2023-11-19T21:43:34.606Z,43.88
2023-11-19T21:46:01.929Z,43.53
2023-11-19T21:48:29.411Z,40.50
2023-11-19T21:50:57.665Z,43.55
2023-11-19T21:53:24.903Z,43.65
2023-11-19T21:58:39.170Z,47.08
2023-11-19T22:01:09.264Z,44.67
2023-11-19T22:03:38.229Z,38.33
2023-11-19T22:06:05.788Z,37.25
2023-11-19T22:08:33.511Z,34.15
2023-11-19T22:11:00.751Z,39.55
2023-11-19T22:13:28.096Z,47.13
2023-11-19T22:15:55.349Z,29.67
2023-11-19T22:18:22.757Z,31.48
2023-11-19T22:20:49.912Z,39.22
2023-11-19T22:23:17.186Z,37.85
2023-11-19T22:25:44.366Z,33.47
2023-11-19T22:28:11.775Z,41.63
2023-11-19T22:30:42.696Z,40.33
2023-11-19T22:33:10.174Z,37.40
2023-11-19T22:35:37.852Z,44.53
2023-11-19T22:38:05.171Z,44.15
2023-11-19T22:40:33.885Z,37.85
2023-11-19T22:45:28.515Z,41.67
2023-11-19T22:47:55.825Z,38.67
2023-11-19T22:50:23.172Z,30.98
2023-11-19T22:52:50.428Z,31.38
2023-11-19T22:55:17.593Z,31.00
2023-11-19T23:00:29.392Z,30.58
2023-11-19T23:02:58.739Z,30.25
2023-11-19T23:05:31.393Z,31.05
2023-11-19T23:08:01.964Z,30.73
2023-11-19T23:10:29.281Z,34.10
2023-11-19T23:12:58.803Z,32.78
2023-11-19T23:15:27.177Z,32.47
2023-11-19T23:17:54.701Z,29.42
2023-11-19T23:20:22.622Z,25.05
2023-11-19T23:22:51.008Z,29.52
2023-11-19T23:25:18.224Z,33.25
2023-11-19T23:27:46.148Z,28.40
2023-11-19T23:30:17.108Z,39.10
2023-11-19T23:32:44.436Z,28.63
2023-11-19T23:35:12.802Z,33.22
2023-11-19T23:37:42.380Z,34.67
2023-11-19T23:40:10.017Z,40.92
2023-11-19T23:42:37.207Z,33.85
2023-11-19T23:45:04.770Z,33.90
2023-11-19T23:47:32.601Z,32.22
2023-11-19T23:49:59.987Z,25.52
2023-11-19T23:52:27.232Z,37.70
2023-11-19T23:54:54.465Z,31.27
2023-11-19T23:57:22.778Z,40.55
2023-11-19T23:59:50.123Z,38.38
